createdAt,value
2022-11-04T00:01:59.586Z,47.08
2022-11-04T00:08:20.323Z,46.40
2022-11-04T00:14:22.778Z,48.75
2022-11-04T00:20:43.515Z,59.10
2022-11-04T00:27:04.244Z,54.88
2022-11-04T00:33:25.123Z,44.00
2022-11-04T00:39:27.055Z,47.90
2022-11-04T00:45:29.163Z,73.83
2022-11-04T00:51:31.305Z,41.47
2022-11-04T00:57:33.511Z,46.47
2022-11-04T01:03:35.647Z,66.87
2022-11-04T01:09:37.794Z,45.43
2022-11-04T01:15:40.417Z,56.30
2022-11-04T01:21:42.486Z,43.40
2022-11-04T01:27:44.746Z,33.47
2022-11-04T01:33:47.636Z,50.28
2022-11-04T01:39:49.790Z,42.28
2022-11-04T01:45:56.990Z,42.03
2022-11-04T01:52:03.133Z,48.25
2022-11-04T01:58:11.557Z,46.63
2022-11-04T02:04:26.797Z,38.78
2022-11-04T02:10:30.678Z,43.60
2022-11-04T02:16:46.958Z,49.95
2022-11-04T02:22:52.165Z,39.17
2022-11-04T02:29:15.251Z,44.63
2022-11-04T02:35:41.826Z,38.72
2022-11-04T02:42:16.852Z,64.47
2022-11-04T02:48:51.990Z,48.72
2022-11-04T02:55:03.052Z,49.88
2022-11-04T03:01:08.330Z,49.40
2022-11-04T03:07:15.310Z,50.88
2022-11-04T03:13:22.111Z,39.13
2022-11-04T03:19:40.101Z,50.50
2022-11-04T03:25:48.201Z,38.90
2022-11-04T03:31:55.943Z,53.50
2022-11-04T03:37:59.123Z,41.05
2022-11-04T03:44:01.570Z,45.42
2022-11-04T03:50:14.068Z,52.38
2022-11-04T03:57:21.021Z,39.63
2022-11-04T04:03:32.122Z,50.90
2022-11-04T04:09:43.034Z,42.13
2022-11-04T04:15:54.812Z,40.75
2022-11-04T04:22:04.605Z,42.90
2022-11-04T04:28:06.901Z,43.53
2022-11-04T04:34:09.371Z,47.55
2022-11-04T04:40:34.453Z,47.08
2022-11-04T04:46:37.871Z,45.00
2022-11-04T04:52:43.542Z,45.58
2022-11-04T04:58:45.548Z,51.10
2022-11-04T05:04:47.480Z,56.43
2022-11-04T05:10:49.440Z,40.70
2022-11-04T05:16:51.924Z,51.25
2022-11-04T05:22:55.182Z,47.85
2022-11-04T05:28:57.342Z,51.45
2022-11-04T05:34:59.882Z,54.07
2022-11-04T05:41:02.182Z,43.95
2022-11-04T05:53:07.120Z,55.97
2022-11-04T05:59:09.912Z,44.47
2022-11-04T06:05:12.207Z,44.78
2022-11-04T06:11:14.604Z,49.63
2022-11-04T06:17:25.662Z,45.58
2022-11-04T06:23:27.909Z,67.05
2022-11-04T06:29:30.160Z,42.80
2022-11-04T06:35:32.421Z,43.67
2022-11-04T06:41:35.071Z,47.10
2022-11-04T06:47:37.345Z,42.13
2022-11-04T06:53:39.591Z,54.30
2022-11-04T06:59:41.909Z,51.40
2022-11-04T07:05:44.039Z,56.05
2022-11-04T07:11:46.235Z,49.10
2022-11-04T07:17:48.441Z,45.17
2022-11-04T07:23:50.491Z,35.13
2022-11-04T07:29:52.845Z,38.63
2022-11-04T07:35:58.295Z,50.05
2022-11-04T07:42:01.105Z,36.25
2022-11-04T07:48:03.505Z,38.90
2022-11-04T07:54:05.578Z,38.72
2022-11-04T08:00:08.920Z,28.63
2022-11-04T08:06:15.482Z,38.60
2022-11-04T08:12:17.729Z,40.63
2022-11-04T08:18:20.275Z,44.88
2022-11-04T08:30:24.652Z,41.58
2022-11-04T08:36:30.277Z,85.28
2022-11-04T08:42:32.573Z,28.65
2022-11-04T08:54:37.612Z,48.37
2022-11-04T09:00:40.129Z,32.13
2022-11-04T09:06:45.087Z,31.50
2022-11-04T09:12:47.381Z,72.85
2022-11-04T09:18:49.759Z,38.00
2022-11-04T09:24:51.913Z,44.08
2022-11-04T09:30:54.302Z,27.52
2022-11-04T09:36:57.303Z,30.75
2022-11-04T09:43:17.663Z,30.52
2022-11-04T09:49:21.138Z,32.55
2022-11-04T09:55:26.533Z,36.92
2022-11-04T10:01:50.541Z,33.33
2022-11-04T10:08:18.844Z,26.08
2022-11-04T10:14:36.166Z,31.02
2022-11-04T10:20:59.939Z,27.90
2022-11-04T10:27:10.797Z,28.75
2022-11-04T10:33:24.478Z,35.03
2022-11-04T10:39:29.795Z,35.20
2022-11-04T10:45:41.612Z,27.73
2022-11-04T10:51:45.529Z,22.23
2022-11-04T10:57:47.583Z,41.08
2022-11-04T11:03:49.783Z,23.25
2022-11-04T11:09:54.799Z,18.88
2022-11-04T11:16:09.871Z,18.73
2022-11-04T11:22:34.563Z,28.65
2022-11-04T11:28:38.899Z,23.55
2022-11-04T11:34:41.670Z,18.45
2022-11-04T11:41:10.458Z,20.85
2022-11-04T11:47:08.501Z,14.50
2022-11-04T11:53:20.812Z,15.73
2022-11-04T12:12:43.101Z,29.40
2022-11-04T12:19:06.532Z,20.30
2022-11-04T12:25:37.867Z,30.15
2022-11-04T12:31:45.819Z,37.30
2022-11-04T12:38:11.447Z,24.27
2022-11-04T12:44:31.283Z,33.55
2022-11-04T12:50:42.829Z,27.33
2022-11-04T12:56:45.016Z,18.98
2022-11-04T13:03:09.153Z,19.55
2022-11-04T13:09:30.407Z,23.90
2022-11-04T13:15:43.561Z,24.88
2022-11-04T13:21:46.110Z,25.33
2022-11-04T13:34:20.464Z,55.42
2022-11-04T13:40:36.272Z,21.42
2022-11-04T13:46:38.482Z,37.03
2022-11-04T13:52:52.618Z,24.88
2022-11-04T13:59:00.706Z,31.38
2022-11-04T14:05:28.610Z,28.70
2022-11-04T14:11:34.798Z,35.05
2022-11-04T14:17:40.137Z,26.42
2022-11-04T14:24:00.861Z,30.10
2022-11-04T14:30:03.933Z,34.00
2022-11-04T14:36:21.761Z,34.38
2022-11-04T14:42:43.916Z,29.25
2022-11-04T14:48:52.270Z,33.83
2022-11-04T14:55:18.182Z,52.65
2022-11-04T15:01:20.729Z,46.03
2022-11-04T15:07:41.488Z,40.05
2022-11-04T15:13:48.204Z,39.03
2022-11-04T15:19:53.649Z,54.38
2022-11-04T15:25:57.582Z,43.28
2022-11-04T15:32:04.881Z,48.88
2022-11-04T15:38:12.026Z,42.38
2022-11-04T15:44:21.271Z,49.80
2022-11-04T15:50:26.205Z,54.35
2022-11-04T15:56:40.705Z,52.17
2022-11-04T16:02:50.843Z,44.38
2022-11-04T16:09:02.864Z,55.55
2022-11-04T16:15:05.380Z,66.47
2022-11-04T16:21:14.765Z,43.55
2022-11-04T16:27:20.641Z,48.85
2022-11-04T16:33:22.974Z,66.97
2022-11-04T16:39:25.318Z,52.77
2022-11-04T16:45:32.854Z,52.38
2022-11-04T16:51:35.305Z,49.17
2022-11-04T16:57:37.810Z,57.20
2022-11-04T17:03:40.811Z,53.90
2022-11-04T17:09:43.163Z,62.13
2022-11-04T17:15:45.518Z,52.03
2022-11-04T17:21:47.969Z,56.05
2022-11-04T17:27:50.366Z,39.22
2022-11-04T17:33:52.767Z,47.47
2022-11-04T17:39:55.522Z,55.90
2022-11-04T17:46:17.779Z,56.17
2022-11-04T17:52:20.243Z,45.95
2022-11-04T17:58:22.416Z,47.42
2022-11-04T18:04:24.770Z,42.97
2022-11-04T18:10:26.881Z,62.85
2022-11-04T18:16:29.173Z,58.47
2022-11-04T18:22:31.132Z,51.83
2022-11-04T18:28:33.249Z,54.17
2022-11-04T18:34:35.983Z,60.42
2022-11-04T18:40:38.205Z,51.40
2022-11-04T18:46:40.402Z,51.45
2022-11-04T18:52:42.544Z,60.97
2022-11-04T18:58:48.089Z,60.47
2022-11-04T19:04:51.262Z,52.88
2022-11-04T19:11:01.107Z,61.30
2022-11-04T19:17:03.900Z,56.65
2022-11-04T19:23:06.172Z,56.65
2022-11-04T19:29:08.358Z,54.88
2022-11-04T19:35:10.833Z,58.42
2022-11-04T19:41:37.562Z,70.18
2022-11-04T19:47:40.069Z,64.82
2022-11-04T19:53:42.287Z,50.30
2022-11-04T19:59:44.813Z,52.35
2022-11-04T20:05:47.555Z,54.28
2022-11-04T20:12:08.689Z,56.58
2022-11-04T20:18:11.029Z,59.20
2022-11-04T20:24:14.143Z,61.25
2022-11-04T20:36:21.427Z,64.85
2022-11-04T20:42:23.888Z,69.50
2022-11-04T20:48:26.262Z,63.95
2022-11-04T20:54:29.007Z,58.60
2022-11-04T21:00:31.501Z,58.85
2022-11-04T21:06:37.822Z,56.25
2022-11-04T21:12:39.899Z,70.80
2022-11-04T21:18:42.122Z,76.67
2022-11-04T21:24:44.315Z,68.30
2022-11-04T21:30:49.270Z,74.07
2022-11-04T21:36:52.506Z,62.40
2022-11-04T21:42:54.884Z,62.42
2022-11-04T21:48:57.321Z,65.70
2022-11-04T21:54:59.386Z,67.78
2022-11-04T22:01:02.006Z,61.10
2022-11-04T22:07:04.232Z,58.33
2022-11-04T22:13:06.401Z,61.50
2022-11-04T22:19:11.134Z,66.50
2022-11-04T22:25:13.235Z,75.40
2022-11-04T22:31:17.145Z,57.77
2022-11-04T22:37:19.368Z,65.57
2022-11-04T22:43:21.470Z,63.13
2022-11-04T22:49:23.757Z,56.03
2022-11-04T22:55:26.117Z,61.83
2022-11-04T23:01:28.558Z,58.55
2022-11-04T23:07:31.149Z,52.47
2022-11-04T23:13:52.234Z,43.63
2022-11-04T23:19:54.640Z,37.25
2022-11-04T23:25:56.796Z,43.45
2022-11-04T23:31:59.275Z,63.17
2022-11-04T23:38:01.823Z,44.25
2022-11-04T23:44:04.173Z,54.55
2022-11-04T23:50:25.218Z,49.00
2022-11-04T23:56:46.633Z,46.60
